| time (UTC) | temp C | wind direction | speed KPH | gust KPH | rain 1hr cm | rain 24hr cm | rain mn cm | humidity % | barometer mb |
| 20260505021509 | 22 | 231 | 6.4 | 16.1 | 0.00 | 0.46 | 0.43 | 56 | 1001.5 |
| 20260505020008 | 22 | 203 | 3.2 | 11.3 | 0.00 | 0.46 | 0.43 | 57 | 1001.5 |
| 20260505014511 | 23 | 194 | 1.6 | 9.7 | 0.00 | 0.46 | 0.43 | 57 | 1001.3 |
| 20260505013006 | 23 | 240 | 1.6 | 8.0 | 0.00 | 0.46 | 0.43 | 57 | 1001.2 |
| 20260505011504 | 23 | 210 | 3.2 | 14.5 | 0.00 | 0.46 | 0.43 | 56 | 1001.2 |
| 20260505010004 | 23 | 197 | 1.6 | 11.3 | 0.00 | 0.46 | 0.43 | 56 | 1001.0 |
| 20260505004506 | 23 | 64 | 1.6 | 9.7 | 0.00 | 0.46 | 0.43 | 56 | 1000.8 |
| 20260505003002 | 24 | 176 | 3.2 | 11.3 | 0.00 | 0.46 | 0.43 | 55 | 1000.9 |
| 20260505001502 | 24 | 222 | 0.0 | 8.0 | 0.00 | 0.46 | 0.43 | 58 | 1000.8 |
| 20260505000002 | 23 | 79 | 0.0 | 9.7 | 0.00 | 0.46 | 0.43 | 58 | 1000.8 |
| 20260504234600 | 23 | 287 | 1.6 | 9.7 | 0.00 | 0.46 | 0.43 | 59 | 1000.6 |
| 20260504233103 | 23 | 197 | 3.2 | 11.3 | 0.00 | 0.46 | 0.43 | 61 | 1000.3 |
| 20260504231556 | 23 | 228 | 1.6 | 8.0 | 0.00 | 0.46 | 0.43 | 60 | 1000.8 |
| 20260504230054 | 23 | 207 | 1.6 | 8.0 | 0.00 | 0.46 | 0.43 | 60 | 1001.0 |
| 20260504224551 | 23 | 254 | 0.0 | 6.4 | 0.00 | 0.46 | 0.43 | 60 | 1001.6 |
| 20260504223101 | 23 | 274 | 1.6 | 9.7 | 0.00 | 0.46 | 0.43 | 59 | 1001.8 |
| 20260504221547 | 23 | 54 | 1.6 | 11.3 | 0.00 | 0.46 | 0.43 | 59 | 1001.8 |
| 20260504220047 | 24 | 238 | 3.2 | 9.7 | 0.00 | 0.46 | 0.43 | 58 | 1001.8 |
| 20260504214545 | 23 | 198 | 3.2 | 14.5 | 0.00 | 0.46 | 0.43 | 60 | 1001.8 |
| 20260504213045 | 24 | 49 | 3.2 | 16.1 | 0.00 | 0.46 | 0.43 | 59 | 1002.0 |
| 20260504211615 | 24 | 224 | 3.2 | 12.9 | 0.00 | 0.46 | 0.43 | 60 | 1002.3 |
| 20260504210045 | 23 | 266 | 4.8 | 16.1 | 0.00 | 0.46 | 0.43 | 60 | 1002.4 |
| 20260504204539 | 23 | 226 | 3.2 | 11.3 | 0.00 | 0.46 | 0.43 | 62 | 1002.7 |
| 20260504203038 | 23 | 226 | 1.6 | 14.5 | 0.00 | 0.46 | 0.43 | 64 | 1002.8 |
| 20260504201534 | 22 | 187 | 3.2 | 16.1 | 0.00 | 0.46 | 0.43 | 68 | 1002.9 |
| 20260504200031 | 22 | 224 | 3.2 | 11.3 | 0.00 | 0.46 | 0.43 | 72 | 1003.0 |
| 20260504194530 | 20 | 176 | 6.4 | 17.7 | 0.00 | 0.46 | 0.43 | 75 | 1002.4 |
| 20260504193027 | 18 | 207 | 3.2 | 16.1 | 0.03 | 0.46 | 0.43 | 80 | 1001.8 |
| 20260504191527 | 17 | 70 | 1.6 | 8.0 | 0.23 | 0.46 | 0.43 | 82 | 1003.9 |
| 20260504190024 | 17 | 60 | 3.2 | 11.3 | 0.33 | 0.46 | 0.43 | 84 | 1003.9 |
| 20260504184536 | 16 | 277 | 1.6 | 4.8 | 0.36 | 0.46 | 0.43 | 87 | 1004.2 |
| 20260504183022 | 16 | 58 | 1.6 | 9.7 | 0.36 | 0.43 | 0.41 | 88 | 1004.3 |
| 20260504181519 | 16 | 124 | 0.0 | 1.6 | 0.13 | 0.20 | 0.18 | 90 | 1005.4 |
| 20260504180017 | 17 | 236 | 0.0 | 1.6 | 0.05 | 0.13 | 0.10 | 86 | 1004.9 |
| 20260504174516 | 18 | 349 | 0.0 | 4.8 | 0.03 | 0.10 | 0.08 | 76 | 1005.1 |
| 20260504173015 | 19 | 218 | 0.0 | 6.4 | 0.00 | 0.08 | 0.05 | 69 | 1004.4 |
| 20260504171513 | 20 | 203 | 0.0 | 3.2 | 0.00 | 0.08 | 0.05 | 66 | 1004.8 |
| 20260504120138 | 15 | 229 | 0.0 | 6.4 | 0.00 | 0.08 | 0.05 | 82 | 1007.1 |
| 20260504081526 | 16 | 58 | 0.0 | 3.2 | 0.00 | 0.08 | 0.05 | 77 | 1007.6 |
| 20260504044555 | 17 | 236 | 1.6 | 8.0 | 0.03 | 0.03 | 0.03 | 67 | 1007.4 |
| 20260504043058 | 17 | 200 | 0.0 | 6.4 | 0.03 | 0.03 | 0.03 | 68 | 1007.0 |
| 20260504041549 | 18 | 177 | 1.6 | 8.0 | 0.00 | 0.00 | 0.00 | 58 | 1008.1 |
| 20260504040100 | 18 | 190 | 3.2 | 12.9 | 0.00 | 0.00 | 0.00 | 55 | 1007.8 |
| 20260504034547 | 18 | 197 | 3.2 | 11.3 | 0.00 | 0.00 | 0.00 | 54 | 1008.2 |
| 20260504033049 | 19 | 207 | 1.6 | 12.9 | 0.00 | 0.00 | 0.00 | 53 | 1008.4 |
| 20260504031555 | 20 | 160 | 3.2 | 9.7 | 0.00 | 0.00 | 0.00 | 52 | 1008.5 |
| 20260504030045 | 19 | 204 | 1.6 | 4.8 | 0.00 | 0.00 | 0.00 | 53 | 1008.6 |
| 20260504024545 | 19 | 170 | 0.0 | 4.8 | 0.00 | 0.00 | 0.00 | 54 | 1008.5 |
| 20260504023043 | 19 | 212 | 0.0 | 4.8 | 0.00 | 0.00 | 0.00 | 54 | 1008.5 |